createdAt,value
2018-12-13T00:00:08.399Z,97.888184
2018-12-13T00:03:36.284Z,97.576904
2018-12-13T00:07:04.161Z,98.040771
2018-12-13T00:10:33.019Z,98.248291
2018-12-13T00:14:00.885Z,98.248291
2018-12-13T00:17:28.760Z,98.352051
2018-12-13T00:20:56.629Z,98.144531
2018-12-13T00:24:24.495Z,98.144531
2018-12-13T00:27:52.395Z,98.352051
2018-12-13T00:31:20.265Z,98.248291
2018-12-13T00:34:48.164Z,98.248291
2018-12-13T00:38:16.022Z,98.55957
2018-12-13T00:41:43.899Z,98.55957
2018-12-13T00:45:11.796Z,99.078369
2018-12-13T00:48:39.653Z,99.182129
2018-12-13T00:52:07.524Z,99.182129
2018-12-13T00:55:35.397Z,99.603271
2018-12-13T00:59:04.250Z,99.499512
2018-12-13T01:02:32.122Z,99.499512
2018-12-13T01:06:00.002Z,99.334717
2018-12-13T01:09:28.857Z,99.542236
2018-12-13T01:12:56.731Z,99.645996
2018-12-13T01:16:24.608Z,99.645996
2018-12-13T01:19:52.477Z,99.645996
2018-12-13T01:23:20.333Z,99.993896
2018-12-13T01:26:48.209Z,99.993896
2018-12-13T01:30:16.091Z,99.993896
2018-12-13T01:33:43.963Z,99.993896
2018-12-13T01:37:11.848Z,99.993896
2018-12-13T01:40:39.708Z,99.975586
2018-12-13T01:44:07.568Z,99.865723
2018-12-13T01:47:35.446Z,99.603271
2018-12-13T01:51:03.342Z,99.810791
2018-12-13T01:54:31.230Z,99.749756
2018-12-13T01:57:59.089Z,99.749756
2018-12-13T02:01:27.993Z,99.957275
2018-12-13T02:04:55.908Z,99.993896
2018-12-13T02:08:23.782Z,99.993896
2018-12-13T02:11:51.674Z,99.993896
2018-12-13T02:15:19.560Z,99.993896
2018-12-13T02:18:47.440Z,99.993896
2018-12-13T02:22:15.342Z,99.993896
2018-12-13T02:25:43.228Z,99.993896
2018-12-13T02:29:12.112Z,99.993896
2018-12-13T02:32:39.980Z,99.993896
2018-12-13T02:36:07.875Z,99.993896
2018-12-13T02:39:35.758Z,99.993896
2018-12-13T02:43:03.651Z,99.993896
2018-12-13T02:46:31.551Z,99.993896
2018-12-13T02:49:59.439Z,99.993896
2018-12-13T02:53:27.320Z,99.993896
2018-12-13T02:56:55.203Z,99.993896
2018-12-13T03:00:23.093Z,99.993896
2018-12-13T03:03:50.961Z,99.993896
2018-12-13T03:07:18.840Z,99.993896
2018-12-13T03:10:47.711Z,99.993896
2018-12-13T03:14:16.599Z,99.993896
2018-12-13T03:17:44.478Z,99.993896
2018-12-13T03:21:12.365Z,99.993896
2018-12-13T03:24:40.256Z,99.993896
2018-12-13T03:28:08.123Z,99.993896
2018-12-13T03:31:36.006Z,99.993896
2018-12-13T03:35:03.905Z,99.993896
2018-12-13T03:38:31.785Z,99.993896
2018-12-13T03:41:59.666Z,99.993896
2018-12-13T03:45:27.552Z,99.993896
2018-12-13T03:48:55.436Z,99.993896
2018-12-13T03:52:24.306Z,99.993896
2018-12-13T03:55:52.193Z,99.993896
2018-12-13T03:59:20.056Z,99.993896
2018-12-13T04:02:47.957Z,99.993896
2018-12-13T04:06:15.839Z,99.993896
2018-12-13T04:09:43.704Z,99.993896
2018-12-13T04:13:11.586Z,99.993896
2018-12-13T04:16:39.472Z,99.993896
2018-12-13T04:20:07.361Z,99.993896
2018-12-13T04:23:35.236Z,99.993896
2018-12-13T04:27:03.128Z,99.993896
2018-12-13T04:30:31.019Z,99.993896
2018-12-13T04:33:58.899Z,99.993896
2018-12-13T04:37:26.796Z,99.993896
2018-12-13T04:40:58.627Z,99.993896
2018-12-13T04:44:26.496Z,99.993896
2018-12-13T04:47:55.378Z,99.993896
2018-12-13T04:51:24.250Z,99.993896
2018-12-13T04:54:52.129Z,99.993896
2018-12-13T04:58:20.001Z,99.993896
2018-12-13T05:01:48.873Z,99.993896
2018-12-13T05:05:16.757Z,99.993896
2018-12-13T05:08:44.637Z,99.993896
2018-12-13T05:12:12.611Z,99.993896
2018-12-13T05:15:40.496Z,99.993896
2018-12-13T05:19:08.367Z,99.993896
2018-12-13T05:22:36.247Z,99.993896
2018-12-13T05:26:04.132Z,99.993896
2018-12-13T05:29:32.994Z,99.993896
2018-12-13T05:33:00.872Z,99.993896
2018-12-13T05:36:28.768Z,99.993896
2018-12-13T05:39:56.650Z,99.993896
2018-12-13T05:43:25.858Z,99.993896
2018-12-13T05:46:53.536Z,99.993896
2018-12-13T05:50:21.424Z,99.993896
2018-12-13T05:53:49.286Z,99.993896
2018-12-13T05:57:17.175Z,99.993896
2018-12-13T06:00:45.082Z,99.993896
2018-12-13T06:04:12.952Z,99.993896
2018-12-13T06:07:40.840Z,99.993896
2018-12-13T06:11:08.735Z,99.993896
2018-12-13T06:14:36.598Z,99.993896
2018-12-13T06:18:06.868Z,99.993896
2018-12-13T06:21:36.947Z,99.993896
2018-12-13T06:25:04.210Z,99.993896
2018-12-13T06:28:32.093Z,99.993896
2018-12-13T06:32:00.969Z,99.993896
2018-12-13T06:35:28.853Z,99.993896
2018-12-13T06:38:56.730Z,99.993896
2018-12-13T06:42:24.618Z,99.993896
2018-12-13T06:45:52.486Z,99.993896
2018-12-13T06:49:20.395Z,99.993896
2018-12-13T06:52:48.275Z,99.993896
2018-12-13T06:56:16.195Z,99.993896
2018-12-13T06:59:44.070Z,99.993896
2018-12-13T07:03:11.962Z,99.993896
2018-12-13T07:06:39.854Z,99.993896
2018-12-13T07:10:07.723Z,99.993896
2018-12-13T07:13:36.605Z,99.993896
2018-12-13T07:17:04.501Z,99.993896
2018-12-13T07:20:32.379Z,99.993896
2018-12-13T07:24:00.268Z,99.993896
2018-12-13T07:27:28.167Z,99.993896
2018-12-13T07:30:56.032Z,99.993896
2018-12-13T07:34:23.939Z,99.993896
2018-12-13T07:37:51.832Z,99.993896
2018-12-13T07:41:19.707Z,99.993896
2018-12-13T07:44:47.584Z,99.993896
2018-12-13T07:48:15.488Z,99.993896
2018-12-13T07:51:44.378Z,99.993896
2018-12-13T07:55:12.278Z,99.993896
2018-12-13T07:58:41.154Z,99.993896
2018-12-13T08:02:09.047Z,99.993896
2018-12-13T08:05:36.909Z,99.993896
2018-12-13T08:09:04.813Z,99.993896
2018-12-13T08:12:32.702Z,99.993896
2018-12-13T08:16:00.582Z,99.993896
2018-12-13T08:19:28.479Z,99.993896
2018-12-13T08:22:56.360Z,99.993896
2018-12-13T08:26:24.223Z,99.993896
2018-12-13T08:29:52.111Z,99.993896
2018-12-13T08:33:20.000Z,99.993896
2018-12-13T08:36:47.886Z,99.993896
2018-12-13T08:40:15.794Z,99.884033
2018-12-13T08:43:43.688Z,99.255371
2018-12-13T08:47:11.578Z,99.255371
2018-12-13T08:50:39.449Z,99.359131
2018-12-13T08:54:07.339Z,98.840332
2018-12-13T08:57:35.229Z,98.840332
2018-12-13T09:01:03.102Z,99.047852
2018-12-13T09:04:31.846Z,99.151611
2018-12-13T09:08:00.724Z,98.901367
2018-12-13T09:11:28.597Z,98.693848
2018-12-13T09:14:56.482Z,98.901367
2018-12-13T09:18:24.368Z,99.212646
2018-12-13T09:21:52.226Z,99.212646
2018-12-13T09:25:20.114Z,99.316406
2018-12-13T09:28:48.006Z,99.371338
2018-12-13T09:32:15.887Z,99.060059
2018-12-13T09:35:43.790Z,98.956299
2018-12-13T09:39:11.687Z,99.328613
2018-12-13T09:42:39.558Z,99.121094
2018-12-13T09:46:07.446Z,98.602295
2018-12-13T09:49:35.332Z,98.913574
2018-12-13T09:53:03.218Z,98.809814
2018-12-13T09:56:31.105Z,98.394775
2018-12-13T09:59:58.989Z,97.772217
2018-12-13T10:03:26.859Z,98.291016
2018-12-13T10:06:54.752Z,98.498535
2018-12-13T10:10:22.640Z,98.291016
2018-12-13T10:13:50.519Z,97.723389
2018-12-13T10:17:18.417Z,98.138428
2018-12-13T10:20:46.312Z,98.138428
2018-12-13T10:24:14.191Z,98.034668
2018-12-13T10:27:42.089Z,97.723389
2018-12-13T10:31:09.977Z,96.99707
2018-12-13T10:34:37.867Z,96.789551
2018-12-13T10:38:05.746Z,96.478271
2018-12-13T10:41:33.632Z,95.751953
2018-12-13T10:45:01.535Z,95.959473
2018-12-13T10:48:30.395Z,96.374512
2018-12-13T10:51:58.312Z,96.166992
2018-12-13T10:55:26.196Z,95.648193
2018-12-13T10:58:54.107Z,96.478271
2018-12-13T11:02:22.110Z,95.916748
2018-12-13T11:05:50.000Z,95.605469
2018-12-13T11:09:17.879Z,96.539307
2018-12-13T11:12:45.779Z,95.812988
2018-12-13T11:16:13.679Z,95.916748
2018-12-13T11:19:42.609Z,95.812988
2018-12-13T11:23:10.718Z,94.87915
2018-12-13T11:26:38.621Z,95.251465
2018-12-13T11:30:06.521Z,94.421387
2018-12-13T11:33:34.387Z,94.732666
2018-12-13T11:37:02.286Z,94.732666
2018-12-13T11:40:30.175Z,95.043945
2018-12-13T11:43:59.059Z,94.836426
2018-12-13T11:47:26.954Z,94.732666
2018-12-13T11:50:55.835Z,94.317627
2018-12-13T11:54:23.721Z,94.372559
2018-12-13T11:57:51.636Z,93.85376
2018-12-13T12:01:19.532Z,93.95752
2018-12-13T12:04:47.418Z,94.006348
2018-12-13T12:08:15.289Z,94.525146
2018-12-13T12:11:43.177Z,95.043945
2018-12-13T12:15:11.066Z,95.355225
2018-12-13T12:18:38.936Z,95.306396
2018-12-13T12:22:06.852Z,94.372559
2018-12-13T12:25:34.727Z,93.95752
2018-12-13T12:29:02.601Z,93.603516
2018-12-13T12:32:30.491Z,92.926025
2018-12-13T12:35:59.374Z,94.018555
2018-12-13T12:39:27.247Z,92.199707
2018-12-13T12:42:55.142Z,92.199707
2018-12-13T12:46:23.033Z,93.023682
2018-12-13T12:49:50.902Z,93.95752
2018-12-13T12:53:18.799Z,91.577148
2018-12-13T12:56:46.687Z,91.845703
2018-12-13T13:00:14.577Z,92.364502
2018-12-13T13:03:42.468Z,91.101074
2018-12-13T13:07:10.374Z,93.591309
2018-12-13T13:10:38.247Z,95.294189
2018-12-13T13:14:06.140Z,96.063232
2018-12-13T13:17:34.019Z,96.99707
2018-12-13T13:21:01.916Z,96.166992
2018-12-13T13:24:29.815Z,96.728516
2018-12-13T13:27:57.715Z,97.143555
2018-12-13T13:31:25.595Z,96.832275
2018-12-13T13:34:53.473Z,96.936035
2018-12-13T13:38:21.358Z,97.351074
2018-12-13T13:41:49.250Z,97.247314
2018-12-13T13:45:17.121Z,97.143555
2018-12-13T13:48:45.018Z,96.936035
2018-12-13T13:52:12.912Z,97.668457
2018-12-13T13:55:40.782Z,97.772217
2018-12-13T13:59:08.681Z,97.564697
2018-12-13T14:02:37.559Z,97.143555
2018-12-13T14:06:05.438Z,97.088623
2018-12-13T14:09:37.844Z,96.881104
2018-12-13T14:13:04.204Z,97.607422
2018-12-13T14:16:33.078Z,98.22998
2018-12-13T14:20:00.955Z,97.814941
2018-12-13T14:23:28.856Z,97.088623
2018-12-13T14:26:57.719Z,97.027588
2018-12-13T14:30:25.587Z,97.131348
2018-12-13T14:33:53.496Z,96.508789
2018-12-13T14:37:21.375Z,96.716309
2018-12-13T14:40:49.282Z,96.759033
2018-12-13T14:44:17.161Z,97.906494
2018-12-13T14:47:45.055Z,98.425293
2018-12-13T14:51:13.057Z,98.779297
2018-12-13T14:54:40.895Z,99.151611
2018-12-13T14:58:08.792Z,98.779297
2018-12-13T15:01:36.709Z,99.047852
2018-12-13T15:05:04.570Z,98.632812
2018-12-13T15:08:32.460Z,99.151611
2018-12-13T15:12:00.339Z,98.736572
2018-12-13T15:15:28.236Z,98.260498
2018-12-13T15:18:57.160Z,98.260498
2018-12-13T15:22:25.073Z,98.199463
2018-12-13T15:25:53.956Z,98.724365
2018-12-13T15:29:21.833Z,99.658203
2018-12-13T15:32:49.720Z,99.865723
2018-12-13T15:36:17.610Z,99.993896
2018-12-13T15:39:46.473Z,99.993896
2018-12-13T15:43:16.354Z,99.993896
2018-12-13T15:46:44.245Z,99.993896
2018-12-13T15:50:13.113Z,99.993896
2018-12-13T15:53:41.034Z,99.993896
2018-12-13T15:57:09.904Z,99.993896
2018-12-13T16:00:37.770Z,99.993896
2018-12-13T16:04:05.654Z,99.993896
2018-12-13T16:07:33.551Z,99.975586
2018-12-13T16:11:01.429Z,99.865723
2018-12-13T16:14:29.352Z,99.554443
2018-12-13T16:17:57.250Z,99.761963
2018-12-13T16:21:25.152Z,99.975586
2018-12-13T16:24:53.251Z,99.865723
2018-12-13T16:28:21.047Z,99.993896
2018-12-13T16:31:49.078Z,99.993896
2018-12-13T16:35:16.941Z,99.993896
2018-12-13T16:38:45.537Z,99.993896
2018-12-13T16:42:18.775Z,99.993896
2018-12-13T16:45:46.681Z,99.993896
2018-12-13T16:53:36.625Z,99.993896
2018-12-13T16:57:04.517Z,99.993896
2018-12-13T17:00:32.397Z,99.993896
2018-12-13T17:04:00.296Z,99.993896
2018-12-13T17:07:28.198Z,99.993896
2018-12-13T17:10:56.089Z,99.993896
2018-12-13T17:14:23.986Z,99.993896
2018-12-13T17:17:51.887Z,99.993896
2018-12-13T17:21:19.764Z,99.993896
2018-12-13T17:24:47.692Z,99.993896
2018-12-13T17:28:15.596Z,99.993896
2018-12-13T17:31:43.496Z,99.993896
2018-12-13T17:35:11.387Z,99.993896
2018-12-13T17:38:39.285Z,99.993896
2018-12-13T17:42:08.176Z,99.993896
2018-12-13T17:45:36.072Z,99.993896
2018-12-13T17:49:03.999Z,99.993896
2018-12-13T17:52:32.907Z,99.993896
2018-12-13T17:56:00.780Z,99.993896
2018-12-13T17:59:29.663Z,99.993896
2018-12-13T18:02:57.548Z,99.993896
2018-12-13T18:06:25.409Z,99.993896
2018-12-13T18:09:53.328Z,99.993896
2018-12-13T18:13:21.235Z,99.993896
2018-12-13T18:16:49.105Z,99.993896
2018-12-13T18:20:16.999Z,99.993896
2018-12-13T18:23:45.911Z,99.993896
2018-12-13T18:27:15.252Z,99.993896
2018-12-13T18:30:42.706Z,99.993896
2018-12-13T18:34:10.598Z,99.993896
2018-12-13T18:37:39.482Z,99.993896
2018-12-13T18:41:07.380Z,99.993896
2018-12-13T18:44:35.265Z,99.993896
2018-12-13T18:48:03.144Z,99.993896
2018-12-13T18:51:31.049Z,99.993896
2018-12-13T18:54:59.934Z,99.993896
2018-12-13T18:58:28.793Z,99.993896
2018-12-13T19:01:56.701Z,99.993896
2018-12-13T19:05:24.605Z,99.993896
2018-12-13T19:08:52.493Z,99.993896
2018-12-13T19:12:20.393Z,99.993896
2018-12-13T19:15:48.281Z,99.993896
2018-12-13T19:19:16.187Z,99.993896
2018-12-13T19:22:44.065Z,99.993896
2018-12-13T19:26:11.965Z,99.993896
2018-12-13T19:29:39.851Z,99.993896
2018-12-13T19:33:07.779Z,99.993896
2018-12-13T19:36:36.668Z,99.993896
2018-12-13T19:40:04.558Z,99.993896
2018-12-13T19:43:32.429Z,99.993896
2018-12-13T19:47:00.331Z,99.993896
2018-12-13T19:50:28.211Z,99.993896
2018-12-13T19:53:56.103Z,99.993896
2018-12-13T19:57:24.001Z,99.993896
2018-12-13T20:00:51.933Z,99.993896
2018-12-13T20:04:19.810Z,99.993896
2018-12-13T20:07:47.711Z,99.993896
2018-12-13T20:11:15.613Z,99.993896
2018-12-13T20:14:43.539Z,99.993896
2018-12-13T20:18:11.406Z,99.993896
2018-12-13T20:21:39.307Z,99.993896
2018-12-13T20:25:07.200Z,99.993896
2018-12-13T20:28:35.096Z,99.993896
2018-12-13T20:32:02.983Z,99.993896
2018-12-13T20:35:30.913Z,99.993896
2018-12-13T20:38:58.831Z,99.993896
2018-12-13T20:42:27.720Z,99.993896
2018-12-13T20:45:55.623Z,99.993896
2018-12-13T20:49:27.502Z,99.993896
2018-12-13T20:52:55.420Z,99.993896
2018-12-13T20:56:23.294Z,99.993896
2018-12-13T20:59:51.239Z,99.993896
2018-12-13T21:03:19.153Z,99.993896
2018-12-13T21:06:47.046Z,99.993896
2018-12-13T21:10:14.921Z,99.993896
2018-12-13T21:13:43.796Z,99.993896
2018-12-13T21:17:11.683Z,99.993896
2018-12-13T21:20:40.563Z,99.993896
2018-12-13T21:24:08.425Z,99.993896
2018-12-13T21:27:36.332Z,99.993896
2018-12-13T21:31:04.217Z,99.993896
2018-12-13T21:34:32.098Z,99.993896
2018-12-13T21:37:59.986Z,99.993896
2018-12-13T21:41:27.881Z,99.993896
2018-12-13T21:44:55.759Z,99.993896
2018-12-13T21:48:23.635Z,99.993896
2018-12-13T21:51:51.533Z,99.993896
2018-12-13T21:55:19.406Z,99.993896
2018-12-13T21:58:47.287Z,99.993896
2018-12-13T22:02:15.185Z,99.993896
2018-12-13T22:05:43.049Z,99.993896
2018-12-13T22:09:10.958Z,99.993896
2018-12-13T22:12:38.846Z,99.993896
2018-12-13T22:16:06.745Z,99.993896
2018-12-13T22:19:34.630Z,99.993896
2018-12-13T22:23:02.505Z,99.993896
2018-12-13T22:26:30.396Z,99.993896
2018-12-13T22:29:58.267Z,99.993896
2018-12-13T22:33:26.157Z,99.993896
2018-12-13T22:36:55.054Z,99.993896
2018-12-13T22:40:22.930Z,99.993896
2018-12-13T22:43:50.839Z,99.993896
2018-12-13T22:47:18.727Z,99.993896
2018-12-13T22:50:46.609Z,99.993896
2018-12-13T22:54:15.479Z,99.993896
2018-12-13T22:57:43.379Z,99.993896
2018-12-13T23:01:11.263Z,99.993896
2018-12-13T23:04:39.146Z,99.993896
2018-12-13T23:08:07.037Z,99.993896
2018-12-13T23:11:34.915Z,99.993896
2018-12-13T23:15:03.789Z,99.993896
2018-12-13T23:18:32.661Z,99.993896
2018-12-13T23:22:00.565Z,99.993896
2018-12-13T23:25:28.464Z,99.993896
2018-12-13T23:28:56.355Z,99.993896
2018-12-13T23:32:25.223Z,99.993896
2018-12-13T23:35:53.130Z,99.993896
2018-12-13T23:39:20.995Z,99.993896
2018-12-13T23:42:49.905Z,99.993896
2018-12-13T23:46:17.806Z,99.993896
2018-12-13T23:49:45.676Z,99.993896
2018-12-13T23:53:13.579Z,99.993896
2018-12-13T23:56:41.476Z,99.993896
